sensor_id;sensor_type;location;lat;lon;timestamp;temperature;humidity
12655;DHT22;6392;44.644;11.448;2023-03-13T00:01:56;9.40;99.90
12655;DHT22;6392;44.644;11.448;2023-03-13T00:04:24;9.40;99.90
12655;DHT22;6392;44.644;11.448;2023-03-13T00:06:50;9.40;99.90
12655;DHT22;6392;44.644;11.448;2023-03-13T00:09:18;9.40;99.90
12655;DHT22;6392;44.644;11.448;2023-03-13T00:11:45;9.40;99.90
12655;DHT22;6392;44.644;11.448;2023-03-13T00:14:12;9.40;99.90
12655;DHT22;6392;44.644;11.448;2023-03-13T00:16:40;9.40;99.90
12655;DHT22;6392;44.644;11.448;2023-03-13T00:19:08;9.40;99.90
12655;DHT22;6392;44.644;11.448;2023-03-13T00:21:35;9.40;99.90
12655;DHT22;6392;44.644;11.448;2023-03-13T00:24:03;9.40;99.90
12655;DHT22;6392;44.644;11.448;2023-03-13T00:26:30;9.40;99.90
12655;DHT22;6392;44.644;11.448;2023-03-13T00:28:58;9.40;99.90
12655;DHT22;6392;44.644;11.448;2023-03-13T00:31:26;9.50;99.90
12655;DHT22;6392;44.644;11.448;2023-03-13T00:33:58;9.50;99.90
12655;DHT22;6392;44.644;11.448;2023-03-13T00:36:27;9.50;99.90
12655;DHT22;6392;44.644;11.448;2023-03-13T00:38:55;9.50;99.90
12655;DHT22;6392;44.644;11.448;2023-03-13T00:41:24;9.50;99.90
12655;DHT22;6392;44.644;11.448;2023-03-13T00:43:51;9.40;99.90
12655;DHT22;6392;44.644;11.448;2023-03-13T00:46:20;9.30;99.90
12655;DHT22;6392;44.644;11.448;2023-03-13T00:48:48;9.20;99.90
12655;DHT22;6392;44.644;11.448;2023-03-13T00:51:18;9.20;99.90
12655;DHT22;6392;44.644;11.448;2023-03-13T00:53:45;9.20;99.90
12655;DHT22;6392;44.644;11.448;2023-03-13T00:56:14;9.20;99.90
12655;DHT22;6392;44.644;11.448;2023-03-13T00:58:43;9.20;99.90
12655;DHT22;6392;44.644;11.448;2023-03-13T01:01:12;9.20;99.90
12655;DHT22;6392;44.644;11.448;2023-03-13T01:03:40;9.20;99.90
12655;DHT22;6392;44.644;11.448;2023-03-13T01:06:11;9.20;99.90
12655;DHT22;6392;44.644;11.448;2023-03-13T01:08:39;10.20;99.90
12655;DHT22;6392;44.644;11.448;2023-03-13T01:11:08;9.20;99.90
12655;DHT22;6392;44.644;11.448;2023-03-13T01:13:35;9.20;99.90
12655;DHT22;6392;44.644;11.448;2023-03-13T01:16:04;9.10;99.90
12655;DHT22;6392;44.644;11.448;2023-03-13T01:18:32;9.10;99.90
12655;DHT22;6392;44.644;11.448;2023-03-13T01:20:59;9.10;99.90
12655;DHT22;6392;44.644;11.448;2023-03-13T01:23:26;9.10;99.90
12655;DHT22;6392;44.644;11.448;2023-03-13T01:25:55;9.10;99.90
12655;DHT22;6392;44.644;11.448;2023-03-13T01:28:23;9.00;99.90
12655;DHT22;6392;44.644;11.448;2023-03-13T01:30:51;9.00;99.90
12655;DHT22;6392;44.644;11.448;2023-03-13T01:33:18;9.00;99.90
12655;DHT22;6392;44.644;11.448;2023-03-13T01:35:45;8.90;99.90
12655;DHT22;6392;44.644;11.448;2023-03-13T01:38:12;8.90;99.90
12655;DHT22;6392;44.644;11.448;2023-03-13T01:40:40;8.80;99.90
12655;DHT22;6392;44.644;11.448;2023-03-13T01:43:27;8.80;99.90
12655;DHT22;6392;44.644;11.448;2023-03-13T01:46:01;8.80;99.90
12655;DHT22;6392;44.644;11.448;2023-03-13T01:48:34;8.80;99.90
12655;DHT22;6392;44.644;11.448;2023-03-13T01:51:07;8.90;99.90
12655;DHT22;6392;44.644;11.448;2023-03-13T01:53:36;8.90;99.90
12655;DHT22;6392;44.644;11.448;2023-03-13T01:56:09;8.90;99.90
12655;DHT22;6392;44.644;11.448;2023-03-13T01:58:38;8.80;99.90
12655;DHT22;6392;44.644;11.448;2023-03-13T02:01:06;8.80;99.90
12655;DHT22;6392;44.644;11.448;2023-03-13T02:03:34;8.80;99.90
12655;DHT22;6392;44.644;11.448;2023-03-13T02:06:03;8.80;99.90
12655;DHT22;6392;44.644;11.448;2023-03-13T02:08:36;8.80;99.90
12655;DHT22;6392;44.644;11.448;2023-03-13T02:11:12;8.80;99.90
12655;DHT22;6392;44.644;11.448;2023-03-13T02:13:43;8.80;99.90
12655;DHT22;6392;44.644;11.448;2023-03-13T02:16:10;8.80;99.90
12655;DHT22;6392;44.644;11.448;2023-03-13T02:18:37;8.80;99.90
12655;DHT22;6392;44.644;11.448;2023-03-13T02:21:13;8.80;99.90
12655;DHT22;6392;44.644;11.448;2023-03-13T02:23:49;8.80;99.90
12655;DHT22;6392;44.644;11.448;2023-03-13T02:26:21;8.80;99.90
12655;DHT22;6392;44.644;11.448;2023-03-13T02:28:48;8.80;99.90
12655;DHT22;6392;44.644;11.448;2023-03-13T02:31:15;8.80;99.90
12655;DHT22;6392;44.644;11.448;2023-03-13T02:33:43;8.60;99.90
12655;DHT22;6392;44.644;11.448;2023-03-13T02:36:11;8.80;99.90
12655;DHT22;6392;44.644;11.448;2023-03-13T02:38:43;8.90;99.90
12655;DHT22;6392;44.644;11.448;2023-03-13T02:41:12;8.90;99.90
12655;DHT22;6392;44.644;11.448;2023-03-13T02:43:41;8.90;99.90
12655;DHT22;6392;44.644;11.448;2023-03-13T02:46:10;9.00;99.90
12655;DHT22;6392;44.644;11.448;2023-03-13T02:48:40;9.10;99.90
12655;DHT22;6392;44.644;11.448;2023-03-13T02:51:13;9.20;99.90
12655;DHT22;6392;44.644;11.448;2023-03-13T02:53:42;9.20;99.90
12655;DHT22;6392;44.644;11.448;2023-03-13T02:56:11;9.30;99.90
12655;DHT22;6392;44.644;11.448;2023-03-13T02:58:42;9.40;99.90
12655;DHT22;6392;44.644;11.448;2023-03-13T03:01:09;9.40;99.90
12655;DHT22;6392;44.644;11.448;2023-03-13T03:03:36;9.40;99.90
12655;DHT22;6392;44.644;11.448;2023-03-13T03:06:05;9.40;99.90
12655;DHT22;6392;44.644;11.448;2023-03-13T03:08:32;9.40;99.90
12655;DHT22;6392;44.644;11.448;2023-03-13T03:10:59;9.30;99.90
12655;DHT22;6392;44.644;11.448;2023-03-13T03:13:27;9.30;99.90
12655;DHT22;6392;44.644;11.448;2023-03-13T03:15:55;9.30;99.90
12655;DHT22;6392;44.644;11.448;2023-03-13T03:18:22;9.40;99.90
12655;DHT22;6392;44.644;11.448;2023-03-13T03:20:49;9.40;99.90
12655;DHT22;6392;44.644;11.448;2023-03-13T03:23:16;9.30;99.90
12655;DHT22;6392;44.644;11.448;2023-03-13T03:25:43;9.20;99.90
12655;DHT22;6392;44.644;11.448;2023-03-13T03:28:10;9.30;99.90
12655;DHT22;6392;44.644;11.448;2023-03-13T03:30:37;9.20;99.90
12655;DHT22;6392;44.644;11.448;2023-03-13T03:33:06;9.30;99.90
12655;DHT22;6392;44.644;11.448;2023-03-13T03:35:33;9.20;99.90
12655;DHT22;6392;44.644;11.448;2023-03-13T03:38:03;9.30;99.90
12655;DHT22;6392;44.644;11.448;2023-03-13T03:40:30;9.30;99.90
12655;DHT22;6392;44.644;11.448;2023-03-13T03:42:58;9.30;99.90
12655;DHT22;6392;44.644;11.448;2023-03-13T03:45:25;9.30;99.90
12655;DHT22;6392;44.644;11.448;2023-03-13T03:47:52;9.40;99.90
12655;DHT22;6392;44.644;11.448;2023-03-13T03:50:20;9.40;99.90
12655;DHT22;6392;44.644;11.448;2023-03-13T03:52:47;9.40;99.90
12655;DHT22;6392;44.644;11.448;2023-03-13T03:55:16;9.40;99.90
12655;DHT22;6392;44.644;11.448;2023-03-13T03:57:43;9.40;99.90
12655;DHT22;6392;44.644;11.448;2023-03-13T04:00:11;9.40;99.90
12655;DHT22;6392;44.644;11.448;2023-03-13T04:02:40;9.40;99.90
12655;DHT22;6392;44.644;11.448;2023-03-13T04:05:07;9.40;99.90
12655;DHT22;6392;44.644;11.448;2023-03-13T04:07:36;9.40;99.90
12655;DHT22;6392;44.644;11.448;2023-03-13T04:10:04;9.40;99.90
12655;DHT22;6392;44.644;11.448;2023-03-13T04:12:31;9.40;99.90
12655;DHT22;6392;44.644;11.448;2023-03-13T04:14:58;9.40;99.90
12655;DHT22;6392;44.644;11.448;2023-03-13T04:17:25;9.40;99.90
12655;DHT22;6392;44.644;11.448;2023-03-13T04:19:52;9.40;99.90
12655;DHT22;6392;44.644;11.448;2023-03-13T04:22:19;9.40;99.90
12655;DHT22;6392;44.644;11.448;2023-03-13T04:24:48;9.40;99.90
12655;DHT22;6392;44.644;11.448;2023-03-13T04:27:15;9.30;99.90
12655;DHT22;6392;44.644;11.448;2023-03-13T04:29:43;9.30;99.90
12655;DHT22;6392;44.644;11.448;2023-03-13T04:32:10;9.30;99.90
12655;DHT22;6392;44.644;11.448;2023-03-13T04:34:37;9.30;99.90
12655;DHT22;6392;44.644;11.448;2023-03-13T04:37:04;9.40;99.90
12655;DHT22;6392;44.644;11.448;2023-03-13T04:39:31;9.40;99.90
12655;DHT22;6392;44.644;11.448;2023-03-13T04:42:00;9.40;99.90
12655;DHT22;6392;44.644;11.448;2023-03-13T04:44:27;9.50;99.90
12655;DHT22;6392;44.644;11.448;2023-03-13T04:46:54;9.50;99.90
12655;DHT22;6392;44.644;11.448;2023-03-13T04:49:21;9.50;99.90
12655;DHT22;6392;44.644;11.448;2023-03-13T04:51:48;9.50;99.90
12655;DHT22;6392;44.644;11.448;2023-03-13T04:54:15;9.50;99.90
12655;DHT22;6392;44.644;11.448;2023-03-13T04:56:42;9.50;99.90
12655;DHT22;6392;44.644;11.448;2023-03-13T04:59:12;9.50;99.90
12655;DHT22;6392;44.644;11.448;2023-03-13T05:01:40;9.50;99.90
12655;DHT22;6392;44.644;11.448;2023-03-13T05:04:08;9.40;99.90
12655;DHT22;6392;44.644;11.448;2023-03-13T05:06:35;9.40;99.90
12655;DHT22;6392;44.644;11.448;2023-03-13T05:09:03;9.40;99.90
12655;DHT22;6392;44.644;11.448;2023-03-13T05:11:30;9.40;99.90
12655;DHT22;6392;44.644;11.448;2023-03-13T05:13:57;9.40;99.90
12655;DHT22;6392;44.644;11.448;2023-03-13T05:16:26;9.40;99.90
12655;DHT22;6392;44.644;11.448;2023-03-13T05:18:53;9.40;99.90
12655;DHT22;6392;44.644;11.448;2023-03-13T05:21:21;9.40;99.90
12655;DHT22;6392;44.644;11.448;2023-03-13T05:23:48;9.40;99.90
12655;DHT22;6392;44.644;11.448;2023-03-13T05:26:15;9.40;99.90
12655;DHT22;6392;44.644;11.448;2023-03-13T05:28:42;9.40;99.90
12655;DHT22;6392;44.644;11.448;2023-03-13T05:31:09;9.40;99.90
12655;DHT22;6392;44.644;11.448;2023-03-13T05:33:37;9.40;99.90
12655;DHT22;6392;44.644;11.448;2023-03-13T05:36:04;9.40;99.90
12655;DHT22;6392;44.644;11.448;2023-03-13T05:38:32;9.40;99.90
12655;DHT22;6392;44.644;11.448;2023-03-13T05:40:59;9.30;99.90
12655;DHT22;6392;44.644;11.448;2023-03-13T05:43:26;9.20;99.90
12655;DHT22;6392;44.644;11.448;2023-03-13T05:45:53;9.20;99.90
12655;DHT22;6392;44.644;11.448;2023-03-13T05:48:20;9.20;99.90
12655;DHT22;6392;44.644;11.448;2023-03-13T05:50:49;9.20;99.90
12655;DHT22;6392;44.644;11.448;2023-03-13T05:53:16;9.20;99.90
12655;DHT22;6392;44.644;11.448;2023-03-13T05:55:43;9.20;99.90
12655;DHT22;6392;44.644;11.448;2023-03-13T05:58:10;9.20;99.90
12655;DHT22;6392;44.644;11.448;2023-03-13T06:00:37;9.20;99.90
12655;DHT22;6392;44.644;11.448;2023-03-13T06:03:04;9.30;99.90
12655;DHT22;6392;44.644;11.448;2023-03-13T06:05:31;9.30;99.90
12655;DHT22;6392;44.644;11.448;2023-03-13T06:08:00;9.40;99.90
12655;DHT22;6392;44.644;11.448;2023-03-13T06:10:27;9.30;99.90
12655;DHT22;6392;44.644;11.448;2023-03-13T06:12:55;9.40;99.90
12655;DHT22;6392;44.644;11.448;2023-03-13T06:15:22;9.40;99.90
12655;DHT22;6392;44.644;11.448;2023-03-13T06:17:50;9.40;99.90
12655;DHT22;6392;44.644;11.448;2023-03-13T06:20:17;9.40;99.90
12655;DHT22;6392;44.644;11.448;2023-03-13T06:22:44;9.30;99.90
12655;DHT22;6392;44.644;11.448;2023-03-13T06:25:13;9.30;99.90
12655;DHT22;6392;44.644;11.448;2023-03-13T06:27:40;9.40;99.90
12655;DHT22;6392;44.644;11.448;2023-03-13T06:30:09;9.40;99.90
12655;DHT22;6392;44.644;11.448;2023-03-13T06:32:37;9.50;99.90
12655;DHT22;6392;44.644;11.448;2023-03-13T06:35:05;9.50;99.90
12655;DHT22;6392;44.644;11.448;2023-03-13T06:37:32;9.60;99.90
12655;DHT22;6392;44.644;11.448;2023-03-13T06:39:59;9.60;99.90
12655;DHT22;6392;44.644;11.448;2023-03-13T06:42:27;9.60;99.90
12655;DHT22;6392;44.644;11.448;2023-03-13T06:44:55;9.60;99.90
12655;DHT22;6392;44.644;11.448;2023-03-13T06:47:22;9.70;99.90
12655;DHT22;6392;44.644;11.448;2023-03-13T06:49:49;9.70;99.90
12655;DHT22;6392;44.644;11.448;2023-03-13T06:52:16;9.70;99.90
12655;DHT22;6392;44.644;11.448;2023-03-13T06:54:43;9.80;99.90
12655;DHT22;6392;44.644;11.448;2023-03-13T06:57:10;9.80;99.90
12655;DHT22;6392;44.644;11.448;2023-03-13T06:59:39;9.90;99.90
12655;DHT22;6392;44.644;11.448;2023-03-13T07:02:07;9.90;99.90
12655;DHT22;6392;44.644;11.448;2023-03-13T07:04:34;9.90;99.90
12655;DHT22;6392;44.644;11.448;2023-03-13T07:07:01;9.90;99.90
12655;DHT22;6392;44.644;11.448;2023-03-13T07:09:29;9.90;99.90
12655;DHT22;6392;44.644;11.448;2023-03-13T07:11:56;9.90;99.90
12655;DHT22;6392;44.644;11.448;2023-03-13T07:14:23;9.90;99.90
12655;DHT22;6392;44.644;11.448;2023-03-13T07:16:51;10.00;99.90
12655;DHT22;6392;44.644;11.448;2023-03-13T07:19:19;10.00;99.90
12655;DHT22;6392;44.644;11.448;2023-03-13T07:21:46;10.00;99.90
12655;DHT22;6392;44.644;11.448;2023-03-13T07:24:14;10.00;99.90
12655;DHT22;6392;44.644;11.448;2023-03-13T07:26:41;10.10;99.90
12655;DHT22;6392;44.644;11.448;2023-03-13T07:29:08;10.10;99.90
12655;DHT22;6392;44.644;11.448;2023-03-13T07:31:35;10.10;99.90
12655;DHT22;6392;44.644;11.448;2023-03-13T07:34:05;10.20;99.90
12655;DHT22;6392;44.644;11.448;2023-03-13T07:36:32;10.20;99.90
12655;DHT22;6392;44.644;11.448;2023-03-13T07:39:00;10.30;99.90
12655;DHT22;6392;44.644;11.448;2023-03-13T07:41:27;10.30;99.90
12655;DHT22;6392;44.644;11.448;2023-03-13T07:43:54;10.40;99.90
12655;DHT22;6392;44.644;11.448;2023-03-13T07:46:21;10.50;99.90
12655;DHT22;6392;44.644;11.448;2023-03-13T07:48:48;10.50;99.90
12655;DHT22;6392;44.644;11.448;2023-03-13T07:51:18;10.50;99.90
12655;DHT22;6392;44.644;11.448;2023-03-13T07:53:46;10.60;99.90
12655;DHT22;6392;44.644;11.448;2023-03-13T07:56:14;10.60;99.90
12655;DHT22;6392;44.644;11.448;2023-03-13T07:58:43;10.50;99.90
12655;DHT22;6392;44.644;11.448;2023-03-13T08:01:11;10.60;99.90
12655;DHT22;6392;44.644;11.448;2023-03-13T08:03:38;10.70;99.90
12655;DHT22;6392;44.644;11.448;2023-03-13T08:06:07;10.70;99.90
12655;DHT22;6392;44.644;11.448;2023-03-13T08:08:36;10.80;99.90
12655;DHT22;6392;44.644;11.448;2023-03-13T08:11:05;10.80;99.90
12655;DHT22;6392;44.644;11.448;2023-03-13T08:13:33;10.80;99.90
12655;DHT22;6392;44.644;11.448;2023-03-13T08:16:02;10.80;99.90
12655;DHT22;6392;44.644;11.448;2023-03-13T08:18:29;10.90;99.90
12655;DHT22;6392;44.644;11.448;2023-03-13T08:21:01;11.00;99.90
12655;DHT22;6392;44.644;11.448;2023-03-13T08:23:28;11.00;99.90
12655;DHT22;6392;44.644;11.448;2023-03-13T08:26:01;11.10;99.90
12655;DHT22;6392;44.644;11.448;2023-03-13T08:28:28;11.20;99.90
12655;DHT22;6392;44.644;11.448;2023-03-13T08:30:55;11.30;99.90
12655;DHT22;6392;44.644;11.448;2023-03-13T08:33:22;11.40;99.90
12655;DHT22;6392;44.644;11.448;2023-03-13T08:35:49;11.50;99.90
12655;DHT22;6392;44.644;11.448;2023-03-13T08:38:16;11.60;99.90
12655;DHT22;6392;44.644;11.448;2023-03-13T08:40:43;11.70;99.90
12655;DHT22;6392;44.644;11.448;2023-03-13T08:43:11;11.70;99.90
12655;DHT22;6392;44.644;11.448;2023-03-13T08:45:38;11.70;99.90
12655;DHT22;6392;44.644;11.448;2023-03-13T08:48:05;11.80;99.90
12655;DHT22;6392;44.644;11.448;2023-03-13T08:50:32;11.80;99.90
12655;DHT22;6392;44.644;11.448;2023-03-13T08:52:59;11.90;99.90
12655;DHT22;6392;44.644;11.448;2023-03-13T08:55:26;12.00;99.90
12655;DHT22;6392;44.644;11.448;2023-03-13T08:57:53;12.10;99.90
12655;DHT22;6392;44.644;11.448;2023-03-13T09:00:22;12.20;99.90
12655;DHT22;6392;44.644;11.448;2023-03-13T09:02:49;12.30;99.90
12655;DHT22;6392;44.644;11.448;2023-03-13T09:05:16;12.30;99.90
12655;DHT22;6392;44.644;11.448;2023-03-13T09:07:43;12.40;99.90
12655;DHT22;6392;44.644;11.448;2023-03-13T09:10:10;12.40;99.90
12655;DHT22;6392;44.644;11.448;2023-03-13T09:12:37;12.40;99.90
12655;DHT22;6392;44.644;11.448;2023-03-13T09:15:07;12.50;99.90
12655;DHT22;6392;44.644;11.448;2023-03-13T09:17:35;12.50;99.90
12655;DHT22;6392;44.644;11.448;2023-03-13T09:20:03;12.60;99.90
12655;DHT22;6392;44.644;11.448;2023-03-13T09:22:30;12.60;99.90
12655;DHT22;6392;44.644;11.448;2023-03-13T09:24:57;12.60;99.90
12655;DHT22;6392;44.644;11.448;2023-03-13T09:27:24;12.70;99.90
12655;DHT22;6392;44.644;11.448;2023-03-13T09:29:52;12.70;99.90
12655;DHT22;6392;44.644;11.448;2023-03-13T09:32:19;12.80;99.90
12655;DHT22;6392;44.644;11.448;2023-03-13T09:34:48;12.90;99.90
12655;DHT22;6392;44.644;11.448;2023-03-13T09:37:15;12.90;99.90
12655;DHT22;6392;44.644;11.448;2023-03-13T09:39:42;13.00;99.90
12655;DHT22;6392;44.644;11.448;2023-03-13T09:42:13;13.10;99.90
12655;DHT22;6392;44.644;11.448;2023-03-13T09:44:45;13.20;99.90
12655;DHT22;6392;44.644;11.448;2023-03-13T09:47:19;13.30;99.90
12655;DHT22;6392;44.644;11.448;2023-03-13T09:49:53;13.40;99.90
12655;DHT22;6392;44.644;11.448;2023-03-13T09:52:23;13.40;99.90
12655;DHT22;6392;44.644;11.448;2023-03-13T09:54:53;13.40;99.90
12655;DHT22;6392;44.644;11.448;2023-03-13T09:57:26;13.50;99.90
12655;DHT22;6392;44.644;11.448;2023-03-13T09:59:59;13.60;99.90
12655;DHT22;6392;44.644;11.448;2023-03-13T10:02:31;13.60;99.90
12655;DHT22;6392;44.644;11.448;2023-03-13T10:05:09;13.70;99.90
12655;DHT22;6392;44.644;11.448;2023-03-13T10:07:38;13.70;99.90
12655;DHT22;6392;44.644;11.448;2023-03-13T10:10:12;13.80;99.90
12655;DHT22;6392;44.644;11.448;2023-03-13T10:12:43;13.90;99.90
12655;DHT22;6392;44.644;11.448;2023-03-13T10:15:27;14.00;99.90
12655;DHT22;6392;44.644;11.448;2023-03-13T10:17:58;14.00;99.90
12655;DHT22;6392;44.644;11.448;2023-03-13T10:20:33;14.10;99.90
12655;DHT22;6392;44.644;11.448;2023-03-13T10:23:05;14.10;99.90
12655;DHT22;6392;44.644;11.448;2023-03-13T10:25:35;14.20;99.90
12655;DHT22;6392;44.644;11.448;2023-03-13T10:28:03;14.30;99.90
12655;DHT22;6392;44.644;11.448;2023-03-13T10:30:32;14.30;99.90
12655;DHT22;6392;44.644;11.448;2023-03-13T10:33:21;14.40;99.90
12655;DHT22;6392;44.644;11.448;2023-03-13T10:36:02;14.40;99.90
12655;DHT22;6392;44.644;11.448;2023-03-13T10:38:32;14.50;99.90
12655;DHT22;6392;44.644;11.448;2023-03-13T10:41:00;14.50;99.90
12655;DHT22;6392;44.644;11.448;2023-03-13T10:43:29;14.60;99.90
12655;DHT22;6392;44.644;11.448;2023-03-13T10:45:57;14.60;99.90
12655;DHT22;6392;44.644;11.448;2023-03-13T10:48:28;14.60;99.90
12655;DHT22;6392;44.644;11.448;2023-03-13T10:50:56;14.70;99.90
12655;DHT22;6392;44.644;11.448;2023-03-13T10:53:31;14.70;99.90
12655;DHT22;6392;44.644;11.448;2023-03-13T10:56:03;14.80;99.90
12655;DHT22;6392;44.644;11.448;2023-03-13T10:58:33;14.80;99.90
12655;DHT22;6392;44.644;11.448;2023-03-13T11:01:25;14.80;99.90
12655;DHT22;6392;44.644;11.448;2023-03-13T11:03:55;14.80;99.90
12655;DHT22;6392;44.644;11.448;2023-03-13T11:06:26;14.90;99.90
12655;DHT22;6392;44.644;11.448;2023-03-13T11:09:02;14.90;99.90
12655;DHT22;6392;44.644;11.448;2023-03-13T11:11:30;15.00;99.90
12655;DHT22;6392;44.644;11.448;2023-03-13T11:14:12;15.00;99.90
12655;DHT22;6392;44.644;11.448;2023-03-13T11:16:48;15.00;99.90
12655;DHT22;6392;44.644;11.448;2023-03-13T11:19:28;15.00;99.90
12655;DHT22;6392;44.644;11.448;2023-03-13T11:22:04;15.00;99.90
12655;DHT22;6392;44.644;11.448;2023-03-13T11:24:42;15.00;99.90
12655;DHT22;6392;44.644;11.448;2023-03-13T11:27:16;15.10;99.90
12655;DHT22;6392;44.644;11.448;2023-03-13T11:29:53;15.20;99.90
12655;DHT22;6392;44.644;11.448;2023-03-13T11:32:28;15.20;99.90
12655;DHT22;6392;44.644;11.448;2023-03-13T11:34:58;15.20;99.90
12655;DHT22;6392;44.644;11.448;2023-03-13T11:37:27;15.30;99.90
12655;DHT22;6392;44.644;11.448;2023-03-13T11:40:05;15.30;99.90
12655;DHT22;6392;44.644;11.448;2023-03-13T11:43:11;15.40;99.90
12655;DHT22;6392;44.644;11.448;2023-03-13T11:45:51;15.50;99.90
12655;DHT22;6392;44.644;11.448;2023-03-13T11:48:40;15.50;99.90
12655;DHT22;6392;44.644;11.448;2023-03-13T11:51:17;15.50;99.90
12655;DHT22;6392;44.644;11.448;2023-03-13T11:54:03;15.60;99.90
12655;DHT22;6392;44.644;11.448;2023-03-13T11:56:42;15.60;99.90
12655;DHT22;6392;44.644;11.448;2023-03-13T11:59:27;15.60;99.90
12655;DHT22;6392;44.644;11.448;2023-03-13T12:02:01;15.80;99.90
12655;DHT22;6392;44.644;11.448;2023-03-13T12:04:33;15.80;99.90
12655;DHT22;6392;44.644;11.448;2023-03-13T12:07:06;16.00;99.90
12655;DHT22;6392;44.644;11.448;2023-03-13T12:09:40;16.00;99.90
12655;DHT22;6392;44.644;11.448;2023-03-13T12:12:16;15.90;99.90
12655;DHT22;6392;44.644;11.448;2023-03-13T12:14:49;16.00;99.90
12655;DHT22;6392;44.644;11.448;2023-03-13T12:17:28;16.10;99.90
12655;DHT22;6392;44.644;11.448;2023-03-13T12:20:01;16.10;99.90
12655;DHT22;6392;44.644;11.448;2023-03-13T12:22:37;16.20;99.90
12655;DHT22;6392;44.644;11.448;2023-03-13T12:25:11;16.20;99.90
12655;DHT22;6392;44.644;11.448;2023-03-13T12:27:43;16.20;99.90
12655;DHT22;6392;44.644;11.448;2023-03-13T12:30:20;16.30;99.90
12655;DHT22;6392;44.644;11.448;2023-03-13T12:32:55;16.30;99.90
12655;DHT22;6392;44.644;11.448;2023-03-13T12:35:26;16.30;99.90
12655;DHT22;6392;44.644;11.448;2023-03-13T12:38:01;16.40;99.90
12655;DHT22;6392;44.644;11.448;2023-03-13T12:40:33;16.50;99.90
12655;DHT22;6392;44.644;11.448;2023-03-13T12:43:10;16.50;99.90
12655;DHT22;6392;44.644;11.448;2023-03-13T12:45:53;16.60;99.90
12655;DHT22;6392;44.644;11.448;2023-03-13T12:48:43;16.60;99.90
12655;DHT22;6392;44.644;11.448;2023-03-13T12:51:24;16.70;99.90
12655;DHT22;6392;44.644;11.448;2023-03-13T12:57:32;17.10;99.90
12655;DHT22;6392;44.644;11.448;2023-03-13T13:00:14;17.20;99.90
12655;DHT22;6392;44.644;11.448;2023-03-13T13:02:42;17.20;99.90
12655;DHT22;6392;44.644;11.448;2023-03-13T13:05:17;17.20;99.90
12655;DHT22;6392;44.644;11.448;2023-03-13T13:07:52;17.40;99.90
12655;DHT22;6392;44.644;11.448;2023-03-13T13:10:21;17.40;99.90
12655;DHT22;6392;44.644;11.448;2023-03-13T13:13:18;17.60;99.90
12655;DHT22;6392;44.644;11.448;2023-03-13T13:16:01;17.80;99.90
12655;DHT22;6392;44.644;11.448;2023-03-13T13:18:30;17.90;99.90
12655;DHT22;6392;44.644;11.448;2023-03-13T13:21:22;18.00;99.90
12655;DHT22;6392;44.644;11.448;2023-03-13T13:23:51;18.20;99.90
12655;DHT22;6392;44.644;11.448;2023-03-13T13:26:49;18.40;99.90
12655;DHT22;6392;44.644;11.448;2023-03-13T13:32:39;18.50;99.90
12655;DHT22;6392;44.644;11.448;2023-03-13T13:35:24;18.50;99.90
12655;DHT22;6392;44.644;11.448;2023-03-13T13:37:52;18.60;99.90
12655;DHT22;6392;44.644;11.448;2023-03-13T13:40:22;18.70;99.90
12655;DHT22;6392;44.644;11.448;2023-03-13T13:42:53;18.60;99.90
12655;DHT22;6392;44.644;11.448;2023-03-13T13:45:29;18.40;99.90
12655;DHT22;6392;44.644;11.448;2023-03-13T13:51:21;18.30;99.90
12655;DHT22;6392;44.644;11.448;2023-03-13T13:53:57;18.20;99.90
12655;DHT22;6392;44.644;11.448;2023-03-13T13:56:43;18.10;99.90
12655;DHT22;6392;44.644;11.448;2023-03-13T13:59:32;18.10;99.90
12655;DHT22;6392;44.644;11.448;2023-03-13T14:02:21;18.10;99.90
12655;DHT22;6392;44.644;11.448;2023-03-13T14:04:55;18.10;99.90
12655;DHT22;6392;44.644;11.448;2023-03-13T14:07:31;18.00;99.90
12655;DHT22;6392;44.644;11.448;2023-03-13T14:10:11;17.90;99.90
12655;DHT22;6392;44.644;11.448;2023-03-13T14:12:45;17.90;99.90
12655;DHT22;6392;44.644;11.448;2023-03-13T14:15:15;17.80;99.90
12655;DHT22;6392;44.644;11.448;2023-03-13T14:17:46;17.80;99.90
12655;DHT22;6392;44.644;11.448;2023-03-13T14:20:24;17.80;99.90
12655;DHT22;6392;44.644;11.448;2023-03-13T14:22:54;17.80;99.90
12655;DHT22;6392;44.644;11.448;2023-03-13T14:25:23;17.70;99.90
12655;DHT22;6392;44.644;11.448;2023-03-13T14:27:51;17.70;99.90
12655;DHT22;6392;44.644;11.448;2023-03-13T14:30:20;17.70;99.90
12655;DHT22;6392;44.644;11.448;2023-03-13T14:32:49;17.70;99.90
12655;DHT22;6392;44.644;11.448;2023-03-13T14:35:18;17.70;99.90
12655;DHT22;6392;44.644;11.448;2023-03-13T14:37:47;17.60;99.90
12655;DHT22;6392;44.644;11.448;2023-03-13T14:40:24;17.60;99.90
12655;DHT22;6392;44.644;11.448;2023-03-13T14:42:53;17.60;99.90
12655;DHT22;6392;44.644;11.448;2023-03-13T14:45:25;17.70;99.90
12655;DHT22;6392;44.644;11.448;2023-03-13T14:47:53;17.80;99.90
12655;DHT22;6392;44.644;11.448;2023-03-13T14:50:23;18.00;99.90
12655;DHT22;6392;44.644;11.448;2023-03-13T14:52:53;18.10;99.90
12655;DHT22;6392;44.644;11.448;2023-03-13T14:55:43;18.10;99.90
12655;DHT22;6392;44.644;11.448;2023-03-13T14:58:27;18.20;99.90
12655;DHT22;6392;44.644;11.448;2023-03-13T15:00:55;18.20;99.90
12655;DHT22;6392;44.644;11.448;2023-03-13T15:03:29;18.20;99.90
12655;DHT22;6392;44.644;11.448;2023-03-13T15:06:17;18.30;99.90
12655;DHT22;6392;44.644;11.448;2023-03-13T15:08:46;18.40;99.90
12655;DHT22;6392;44.644;11.448;2023-03-13T15:11:21;18.50;99.90
12655;DHT22;6392;44.644;11.448;2023-03-13T15:13:50;18.50;99.90
12655;DHT22;6392;44.644;11.448;2023-03-13T15:16:19;18.50;99.90
12655;DHT22;6392;44.644;11.448;2023-03-13T15:18:47;18.50;99.90
12655;DHT22;6392;44.644;11.448;2023-03-13T15:21:28;18.50;99.90
12655;DHT22;6392;44.644;11.448;2023-03-13T15:23:59;18.50;99.90
12655;DHT22;6392;44.644;11.448;2023-03-13T15:26:28;18.50;99.90
12655;DHT22;6392;44.644;11.448;2023-03-13T15:28:55;18.60;99.90
12655;DHT22;6392;44.644;11.448;2023-03-13T15:31:26;18.60;99.90
12655;DHT22;6392;44.644;11.448;2023-03-13T15:33:55;18.60;99.90
12655;DHT22;6392;44.644;11.448;2023-03-13T15:36:24;18.60;99.90
12655;DHT22;6392;44.644;11.448;2023-03-13T15:38:51;18.60;99.90
12655;DHT22;6392;44.644;11.448;2023-03-13T15:41:18;18.70;99.90
12655;DHT22;6392;44.644;11.448;2023-03-13T15:43:47;18.60;99.90
12655;DHT22;6392;44.644;11.448;2023-03-13T15:46:18;18.60;99.90
12655;DHT22;6392;44.644;11.448;2023-03-13T15:48:46;18.80;99.90
12655;DHT22;6392;44.644;11.448;2023-03-13T15:51:14;18.90;99.90
12655;DHT22;6392;44.644;11.448;2023-03-13T15:53:42;19.00;99.90
12655;DHT22;6392;44.644;11.448;2023-03-13T15:56:14;19.10;99.90
12655;DHT22;6392;44.644;11.448;2023-03-13T15:58:41;19.10;99.90
12655;DHT22;6392;44.644;11.448;2023-03-13T16:01:12;19.10;99.90
12655;DHT22;6392;44.644;11.448;2023-03-13T16:03:40;19.00;99.90
12655;DHT22;6392;44.644;11.448;2023-03-13T16:06:15;18.80;99.90
12655;DHT22;6392;44.644;11.448;2023-03-13T16:08:43;18.70;99.90